createdAt,value
2018-12-25T00:00:18.800Z,101883.48
2018-12-25T00:02:51.959Z,101871.53
2018-12-25T00:05:23.145Z,101885.60
2018-12-25T00:07:54.476Z,101888.16
2018-12-25T00:10:25.862Z,101880.97
2018-12-25T00:12:56.915Z,101885.70
2018-12-25T00:15:28.455Z,101877.16
2018-12-25T00:17:59.507Z,101874.20
2018-12-25T00:20:30.378Z,101872.03
2018-12-25T00:23:01.627Z,101867.76
2018-12-25T00:25:32.712Z,101855.85
2018-12-25T00:28:04.460Z,101851.17
2018-12-25T00:30:35.498Z,101848.66
2018-12-25T00:33:06.852Z,101845.23
2018-12-25T00:35:38.693Z,101839.72
2018-12-25T00:38:10.053Z,101847.37
2018-12-25T00:40:41.231Z,101843.51
2018-12-25T00:43:12.563Z,101835.88
2018-12-25T00:45:44.130Z,101834.17
2018-12-25T00:48:15.151Z,101838.02
2018-12-25T00:50:46.645Z,101829.91
2018-12-25T00:53:17.855Z,101828.62
2018-12-25T00:55:49.395Z,101835.83
2018-12-25T00:58:21.157Z,101838.39
2018-12-25T01:00:52.309Z,101841.81
2018-12-25T01:03:23.755Z,101843.55
2018-12-25T01:05:54.918Z,101846.09
2018-12-25T01:08:26.322Z,101855.89
2018-12-25T01:10:58.319Z,101870.33
2018-12-25T01:13:32.220Z,101879.25
2018-12-25T01:16:03.067Z,101892.48
2018-12-25T01:18:33.860Z,101880.94
2018-12-25T01:21:04.987Z,101883.89
2018-12-25T01:23:35.985Z,101897.93
2018-12-25T01:26:07.057Z,101896.66
2018-12-25T01:28:37.880Z,101896.62
2018-12-25T01:31:09.744Z,101904.71
2018-12-25T01:33:40.761Z,101903.85
2018-12-25T01:36:12.485Z,101913.22
2018-12-25T01:38:43.543Z,101905.55
2018-12-25T01:41:14.764Z,101903.03
2018-12-25T01:43:45.817Z,101906.83
2018-12-25T01:46:16.800Z,101902.19
2018-12-25T01:48:47.543Z,101886.87
2018-12-25T01:51:18.378Z,101892.36
2018-12-25T01:53:50.078Z,101896.61
2018-12-25T01:56:21.003Z,101896.12
2018-12-25T01:58:51.999Z,101890.59
2018-12-25T02:01:23.627Z,101900.76
2018-12-25T02:03:55.012Z,101918.27
2018-12-25T02:06:26.198Z,101915.72
2018-12-25T02:08:57.190Z,101904.22
2018-12-25T02:11:28.236Z,101902.13
2018-12-25T02:13:59.237Z,101902.95
2018-12-25T02:16:30.325Z,101901.23
2018-12-25T02:19:01.352Z,101911.08
2018-12-25T02:21:32.284Z,101903.86
2018-12-25T02:24:03.343Z,101906.38
2018-12-25T02:26:34.994Z,101908.91
2018-12-25T02:29:06.369Z,101903.33
2018-12-25T02:31:38.159Z,101895.67
2018-12-25T02:34:11.019Z,101901.99
2018-12-25T02:36:42.102Z,101901.52
2018-12-25T02:39:13.180Z,101895.98
2018-12-25T02:41:44.525Z,101886.67
2018-12-25T02:44:15.882Z,101895.23
2018-12-25T02:46:46.823Z,101894.37
2018-12-25T02:49:18.414Z,101889.70
2018-12-25T02:51:49.554Z,101891.80
2018-12-25T02:54:20.764Z,101884.17
2018-12-25T02:56:52.122Z,101881.21
2018-12-25T02:59:23.956Z,101881.58
2018-12-25T03:01:55.071Z,101881.58
2018-12-25T03:04:26.476Z,101883.67
2018-12-25T03:06:57.718Z,101879.44
2018-12-25T03:09:29.158Z,101874.27
2018-12-25T03:12:00.208Z,101878.53
2018-12-25T03:14:31.368Z,101877.70
2018-12-25T03:17:02.331Z,101875.56
2018-12-25T03:19:33.586Z,101875.16
2018-12-25T03:22:04.496Z,101878.11
2018-12-25T03:24:35.574Z,101882.77
2018-12-25T03:27:07.075Z,101867.87
2018-12-25T03:29:37.828Z,101868.27
2018-12-25T03:32:08.712Z,101863.56
2018-12-25T03:34:40.108Z,101861.91
2018-12-25T03:37:11.646Z,101852.12
2018-12-25T03:39:42.538Z,101856.84
2018-12-25T03:42:14.338Z,101858.51
2018-12-25T03:44:45.402Z,101865.27
2018-12-25T03:47:16.391Z,101867.02
2018-12-25T03:49:47.439Z,101867.89
2018-12-25T03:52:19.013Z,101872.14
2018-12-25T03:54:50.098Z,101883.63
2018-12-25T03:57:21.533Z,101870.44
2018-12-25T03:59:52.809Z,101868.72
2018-12-25T04:02:23.623Z,101864.45
2018-12-25T04:04:54.917Z,101865.70
2018-12-25T04:07:26.247Z,101857.97
2018-12-25T04:09:57.456Z,101857.09
2018-12-25T04:12:28.888Z,101862.20
2018-12-25T04:14:59.623Z,101856.73
2018-12-25T04:17:31.110Z,101863.09
2018-12-25T04:20:02.404Z,101861.80
2018-12-25T04:22:33.772Z,101864.31
2018-12-25T04:25:05.188Z,101867.77
2018-12-25T04:27:36.700Z,101872.04
2018-12-25T04:30:07.517Z,101861.81
2018-12-25T04:32:38.445Z,101861.75
2018-12-25T04:35:10.136Z,101865.13
2018-12-25T04:37:41.447Z,101866.84
2018-12-25T04:40:12.255Z,101869.39
2018-12-25T04:42:43.510Z,101880.42
2018-12-25T04:45:14.478Z,101875.80
2018-12-25T04:47:45.476Z,101876.61
2018-12-25T04:50:16.724Z,101879.17
2018-12-25T04:52:47.744Z,101880.93
2018-12-25T04:55:18.918Z,101874.53
2018-12-25T04:57:51.763Z,101877.06
2018-12-25T05:00:22.920Z,101880.43
2018-12-25T05:02:53.836Z,101872.37
2018-12-25T05:05:24.894Z,101878.31
2018-12-25T05:07:55.651Z,101885.53
2018-12-25T05:10:26.623Z,101879.63
2018-12-25T05:12:57.607Z,101879.15
2018-12-25T05:15:28.843Z,101872.77
2018-12-25T05:17:59.605Z,101872.78
2018-12-25T05:20:37.825Z,101877.05
2018-12-25T05:23:03.390Z,101877.98
2018-12-25T05:25:34.383Z,101883.06
2018-12-25T05:28:05.690Z,101889.89
2018-12-25T05:30:36.735Z,101888.23
2018-12-25T05:33:07.989Z,101886.03
2018-12-25T05:35:38.804Z,101879.26
2018-12-25T05:38:09.607Z,101878.81
2018-12-25T05:40:40.578Z,101876.23
2018-12-25T05:43:11.918Z,101875.45
2018-12-25T05:45:43.201Z,101874.09
2018-12-25T05:48:14.430Z,101869.39
2018-12-25T05:50:46.751Z,101877.10
2018-12-25T05:53:18.171Z,101881.83
2018-12-25T05:55:49.804Z,101884.78
2018-12-25T05:58:20.785Z,101895.84
2018-12-25T06:00:51.889Z,101894.03
2018-12-25T06:03:23.081Z,101897.08
2018-12-25T06:05:54.478Z,101896.61
2018-12-25T06:08:25.465Z,101902.48
2018-12-25T06:10:56.525Z,101909.22
2018-12-25T06:13:27.790Z,101901.70
2018-12-25T06:15:59.305Z,101905.07
2018-12-25T06:18:31.575Z,101890.59
2018-12-25T06:21:02.568Z,101887.62
2018-12-25T06:23:33.569Z,101885.42
2018-12-25T06:26:04.304Z,101893.90
2018-12-25T06:28:35.316Z,101896.45
2018-12-25T06:31:06.626Z,101894.71
2018-12-25T06:33:37.837Z,101892.26
2018-12-25T06:36:09.263Z,101901.16
2018-12-25T06:38:40.045Z,101897.75
2018-12-25T06:41:11.078Z,101900.78
2018-12-25T06:43:42.088Z,101896.42
2018-12-25T06:46:13.140Z,101883.69
2018-12-25T06:48:44.757Z,101875.13
2018-12-25T06:51:15.743Z,101884.98
2018-12-25T06:53:46.993Z,101881.18
2018-12-25T06:56:18.323Z,101885.91
2018-12-25T06:58:49.095Z,101883.75
2018-12-25T07:01:20.172Z,101882.06
2018-12-25T07:03:51.755Z,101887.99
2018-12-25T07:06:22.896Z,101884.63
2018-12-25T07:08:53.735Z,101883.36
2018-12-25T07:11:24.982Z,101886.30
2018-12-25T07:13:55.966Z,101891.80
2018-12-25T07:16:27.258Z,101894.89
2018-12-25T07:18:58.271Z,101901.11
2018-12-25T07:21:29.599Z,101891.75
2018-12-25T07:24:00.850Z,101899.38
2018-12-25T07:26:31.889Z,101902.78
2018-12-25T07:29:02.962Z,101899.78
2018-12-25T07:31:34.298Z,101904.09
2018-12-25T07:34:05.095Z,101890.13
2018-12-25T07:36:37.103Z,101891.05
2018-12-25T07:39:07.986Z,101888.15
2018-12-25T07:41:39.431Z,101872.86
2018-12-25T07:44:10.537Z,101883.92
2018-12-25T07:46:41.730Z,101882.64
2018-12-25T07:49:13.006Z,101882.17
2018-12-25T07:51:43.823Z,101887.29
2018-12-25T07:54:14.592Z,101893.67
2018-12-25T07:56:45.701Z,101890.73
2018-12-25T07:59:16.981Z,101890.73
2018-12-25T08:01:48.332Z,101895.89
2018-12-25T08:04:19.353Z,101884.77
2018-12-25T08:06:50.586Z,101882.67
2018-12-25T08:09:21.654Z,101876.34
2018-12-25T08:11:53.716Z,101869.61
2018-12-25T08:14:24.853Z,101863.77
2018-12-25T08:16:55.846Z,101865.50
2018-12-25T08:19:27.010Z,101868.88
2018-12-25T08:21:58.235Z,101861.70
2018-12-25T08:24:30.063Z,101858.77
2018-12-25T08:27:01.482Z,101852.40
2018-12-25T08:29:32.912Z,101853.64
2018-12-25T08:32:03.755Z,101864.74
2018-12-25T08:34:35.078Z,101870.72
2018-12-25T08:37:06.115Z,101864.80
2018-12-25T08:39:37.323Z,101863.56
2018-12-25T08:42:08.290Z,101872.53
2018-12-25T08:44:39.330Z,101869.14
2018-12-25T08:47:11.609Z,101873.84
2018-12-25T08:49:42.961Z,101871.28
2018-12-25T08:52:14.479Z,101865.75
2018-12-25T08:54:45.471Z,101858.52
2018-12-25T08:57:17.160Z,101842.33
2018-12-25T08:59:48.170Z,101877.27
2018-12-25T09:02:19.242Z,101876.41
2018-12-25T09:04:50.891Z,101876.80
2018-12-25T09:07:22.039Z,101873.39
2018-12-25T09:09:53.790Z,101882.77
2018-12-25T09:12:24.943Z,101881.48
2018-12-25T09:14:56.591Z,101881.88
2018-12-25T09:17:27.463Z,101875.47
2018-12-25T09:19:58.286Z,101879.27
2018-12-25T09:22:29.411Z,101879.69
2018-12-25T09:25:00.759Z,101885.22
2018-12-25T09:27:32.272Z,101889.45
2018-12-25T09:30:03.379Z,101886.02
2018-12-25T09:32:34.627Z,101892.80
2018-12-25T09:35:05.711Z,101896.20
2018-12-25T09:37:36.460Z,101891.91
2018-12-25T09:40:07.892Z,101886.31
2018-12-25T09:42:39.298Z,101891.39
2018-12-25T09:45:10.075Z,101897.37
2018-12-25T09:47:41.222Z,101900.31
2018-12-25T09:50:12.295Z,101900.30
2018-12-25T09:52:43.600Z,101902.31
2018-12-25T09:55:14.446Z,101906.12
2018-12-25T09:57:45.429Z,101902.70
2018-12-25T10:00:17.497Z,101899.69
2018-12-25T10:02:48.766Z,101899.21
2018-12-25T10:05:19.794Z,101903.94
2018-12-25T10:07:50.905Z,101900.87
2018-12-25T10:10:22.169Z,101898.25
2018-12-25T10:12:53.191Z,101900.74
2018-12-25T10:15:23.966Z,101907.45
2018-12-25T10:17:54.990Z,101906.53
2018-12-25T10:20:28.200Z,101904.85
2018-12-25T10:22:59.336Z,101906.51
2018-12-25T10:25:30.411Z,101902.66
2018-12-25T10:28:01.393Z,101913.84
2018-12-25T10:30:32.227Z,101907.39
2018-12-25T10:33:03.450Z,101898.80
2018-12-25T10:35:34.730Z,101907.33
2018-12-25T10:38:05.470Z,101904.60
2018-12-25T10:40:36.472Z,101904.57
2018-12-25T10:43:07.939Z,101898.55
2018-12-25T10:45:40.031Z,101895.94
2018-12-25T10:48:11.332Z,101899.66
2018-12-25T10:50:43.114Z,101902.58
2018-12-25T10:53:14.089Z,101894.71
2018-12-25T10:55:45.347Z,101884.47
2018-12-25T10:58:16.638Z,101893.12
2018-12-25T11:00:51.050Z,101887.12
2018-12-25T11:03:22.696Z,101885.30
2018-12-25T11:05:54.039Z,101872.48
2018-12-25T11:08:26.282Z,101868.24
2018-12-25T11:10:58.155Z,101861.27
2018-12-25T11:13:29.126Z,101854.92
2018-12-25T11:16:00.282Z,101846.41
2018-12-25T11:18:31.106Z,101837.09
2018-12-25T11:21:02.783Z,101834.95
2018-12-25T11:23:34.281Z,101829.70
2018-12-25T11:26:05.068Z,101828.92
2018-12-25T11:28:36.189Z,101818.95
2018-12-25T11:31:08.360Z,101816.28
2018-12-25T11:33:39.294Z,101811.19
2018-12-25T11:36:10.624Z,101812.01
2018-12-25T11:38:42.063Z,101818.47
2018-12-25T11:41:13.423Z,101817.01
2018-12-25T11:43:44.466Z,101815.42
2018-12-25T11:46:15.241Z,101817.34
2018-12-25T11:48:46.263Z,101807.83
2018-12-25T11:51:17.013Z,101810.45
2018-12-25T11:53:47.937Z,101813.34
2018-12-25T11:56:19.615Z,101814.29
2018-12-25T11:58:51.228Z,101813.54
2018-12-25T12:01:22.882Z,101822.86
2018-12-25T12:03:54.039Z,101820.63
2018-12-25T12:06:24.890Z,101824.09
2018-12-25T12:08:55.900Z,101821.14
2018-12-25T12:11:27.183Z,101825.72
2018-12-25T12:13:58.409Z,101830.91
2018-12-25T12:16:30.178Z,101829.09
2018-12-25T12:19:01.118Z,101821.33
2018-12-25T12:21:32.962Z,101821.09
2018-12-25T12:24:03.794Z,101822.28
2018-12-25T12:26:35.045Z,101825.98
2018-12-25T12:29:06.389Z,101830.70
2018-12-25T12:31:37.240Z,101828.28
2018-12-25T12:34:08.030Z,101824.95
2018-12-25T12:36:39.226Z,101827.27
2018-12-25T12:39:10.363Z,101819.17
2018-12-25T12:41:41.454Z,101825.19
2018-12-25T12:44:12.765Z,101819.00
2018-12-25T12:46:44.118Z,101816.86
2018-12-25T12:49:15.127Z,101818.89
2018-12-25T12:51:46.132Z,101824.58
2018-12-25T12:54:18.056Z,101821.56
2018-12-25T12:56:49.228Z,101831.64
2018-12-25T12:59:20.287Z,101825.45
2018-12-25T13:01:51.709Z,101822.30
2018-12-25T13:04:23.239Z,101823.13
2018-12-25T13:06:54.572Z,101822.88
2018-12-25T13:09:25.836Z,101819.94
2018-12-25T13:11:56.861Z,101817.85
2018-12-25T13:14:28.172Z,101827.67
2018-12-25T13:16:59.243Z,101826.81
2018-12-25T13:19:30.390Z,101833.53
2018-12-25T13:22:01.703Z,101831.03
2018-12-25T13:24:32.463Z,101829.76
2018-12-25T13:27:03.612Z,101838.44
2018-12-25T13:29:34.679Z,101835.02
2018-12-25T13:32:05.818Z,101827.41
2018-12-25T13:34:37.576Z,101831.94
2018-12-25T13:37:08.360Z,101838.38
2018-12-25T13:39:39.622Z,101837.02
2018-12-25T13:42:10.627Z,101837.29
2018-12-25T13:44:41.959Z,101839.91
2018-12-25T13:47:12.973Z,101839.12
2018-12-25T13:49:44.292Z,101836.80
2018-12-25T13:52:15.405Z,101836.31
2018-12-25T13:54:46.752Z,101839.80
2018-12-25T13:57:17.834Z,101836.21
2018-12-25T13:59:49.124Z,101836.27
2018-12-25T14:02:19.906Z,101832.16
2018-12-25T14:04:50.910Z,101836.23
2018-12-25T14:07:22.155Z,101837.19
2018-12-25T14:09:53.231Z,101839.23
2018-12-25T14:12:24.590Z,101841.81
2018-12-25T14:14:55.339Z,101845.61
2018-12-25T14:17:26.637Z,101844.28
2018-12-25T14:19:57.482Z,101848.07
2018-12-25T14:22:28.599Z,101851.93
2018-12-25T14:24:59.890Z,101855.38
2018-12-25T14:27:30.714Z,101853.27
2018-12-25T14:30:02.086Z,101861.63
2018-12-25T14:32:33.312Z,101862.39
2018-12-25T14:35:04.644Z,101870.59
2018-12-25T14:37:35.437Z,101874.91
2018-12-25T14:40:06.723Z,101875.73
2018-12-25T14:42:38.270Z,101875.73
2018-12-25T14:45:09.112Z,101878.73
2018-12-25T14:47:40.356Z,101869.83
2018-12-25T14:50:11.167Z,101872.40
2018-12-25T14:52:42.212Z,101862.64
2018-12-25T14:55:13.276Z,101856.11
2018-12-25T14:57:44.259Z,101858.36
2018-12-25T15:00:15.250Z,101865.26
2018-12-25T15:02:46.067Z,101869.11
2018-12-25T15:05:17.193Z,101869.30
2018-12-25T15:07:48.272Z,101868.16
2018-12-25T15:10:19.534Z,101860.92
2018-12-25T15:12:50.595Z,101863.73
2018-12-25T15:15:21.657Z,101868.83
2018-12-25T15:17:52.702Z,101858.63
2018-12-25T15:20:23.771Z,101853.59
2018-12-25T15:22:54.755Z,101852.86
2018-12-25T15:25:25.783Z,101853.42
2018-12-25T15:27:57.036Z,101847.94
2018-12-25T15:30:27.937Z,101846.31
2018-12-25T15:32:59.642Z,101843.44
2018-12-25T15:35:30.474Z,101843.13
2018-12-25T15:38:02.128Z,101842.42
2018-12-25T15:40:33.136Z,101849.42
2018-12-25T15:43:03.894Z,101850.87
2018-12-25T15:45:34.918Z,101855.28
2018-12-25T15:48:05.956Z,101857.55
2018-12-25T15:50:37.034Z,101860.56
2018-12-25T15:56:15.437Z,101850.44
2018-12-25T15:59:12.184Z,101857.45
2018-12-25T16:01:42.926Z,101855.44
2018-12-25T16:04:13.749Z,101857.64
2018-12-25T16:06:45.057Z,101854.68
2018-12-25T16:09:16.309Z,101852.55
2018-12-25T16:11:47.511Z,101852.59
2018-12-25T16:14:18.826Z,101853.38
2018-12-25T16:16:49.912Z,101856.02
2018-12-25T16:19:20.902Z,101860.77
2018-12-25T16:21:51.978Z,101856.97
2018-12-25T16:24:27.481Z,101868.97
2018-12-25T16:26:55.499Z,101864.30
2018-12-25T16:29:26.977Z,101859.63
2018-12-25T16:31:58.223Z,101869.86
2018-12-25T16:34:28.989Z,101864.73
2018-12-25T16:37:00.318Z,101870.31
2018-12-25T16:39:31.410Z,101867.33
2018-12-25T16:42:02.800Z,101865.61
2018-12-25T16:44:33.869Z,101862.18
2018-12-25T16:47:04.829Z,101869.06
2018-12-25T16:49:35.588Z,101867.80
2018-12-25T16:52:06.622Z,101865.65
2018-12-25T16:54:37.870Z,101863.98
2018-12-25T16:57:11.049Z,101864.83
2018-12-25T16:59:41.896Z,101870.37
2018-12-25T17:02:12.934Z,101875.93
2018-12-25T17:04:44.069Z,101867.86
2018-12-25T17:07:14.961Z,101869.12
2018-12-25T17:09:45.950Z,101873.80
2018-12-25T17:12:16.909Z,101864.02
2018-12-25T17:14:47.988Z,101867.85
2018-12-25T17:17:18.987Z,101859.32
2018-12-25T17:19:49.757Z,101852.50
2018-12-25T17:22:20.799Z,101850.80
2018-12-25T17:24:52.073Z,101850.37
2018-12-25T17:27:23.353Z,101849.96
2018-12-25T17:29:54.558Z,101854.66
2018-12-25T17:32:25.519Z,101850.37
2018-12-25T17:34:56.573Z,101851.23
2018-12-25T17:37:29.506Z,101841.86
2018-12-25T17:40:00.774Z,101851.65
2018-12-25T17:42:31.594Z,101847.41
2018-12-25T17:45:02.879Z,101849.98
2018-12-25T17:47:34.408Z,101857.20
2018-12-25T17:50:06.094Z,101849.55
2018-12-25T17:52:37.105Z,101851.24
2018-12-25T17:55:07.937Z,101849.12
2018-12-25T17:57:39.043Z,101848.69
2018-12-25T18:00:10.078Z,101851.25
2018-12-25T18:02:41.874Z,101849.99
2018-12-25T18:05:13.006Z,101848.28
2018-12-25T18:07:44.061Z,101854.68
2018-12-25T18:10:15.319Z,101855.52
2018-12-25T18:12:46.955Z,101858.51
2018-12-25T18:15:17.946Z,101855.09
2018-12-25T18:17:49.434Z,101856.39
2018-12-25T18:20:20.494Z,101848.71
2018-12-25T18:22:51.777Z,101855.53
2018-12-25T18:25:22.605Z,101855.53
2018-12-25T18:27:53.433Z,101849.55
2018-12-25T18:30:24.183Z,101847.86
2018-12-25T18:32:57.233Z,101845.73
2018-12-25T18:35:27.880Z,101842.31
2018-12-25T18:37:59.123Z,101841.45
2018-12-25T18:40:29.920Z,101832.51
2018-12-25T18:43:01.080Z,101830.80
2018-12-25T18:45:31.766Z,101831.67
2018-12-25T18:48:03.158Z,101829.11
2018-12-25T18:50:33.907Z,101829.53
2018-12-25T18:53:04.746Z,101838.06
2018-12-25T18:55:36.237Z,101836.77
2018-12-25T18:58:07.362Z,101832.05
2018-12-25T19:00:38.148Z,101836.73
2018-12-25T19:03:09.237Z,101832.47
2018-12-25T19:05:40.545Z,101833.74
2018-12-25T19:08:11.246Z,101823.06
2018-12-25T19:10:42.219Z,101821.39
2018-12-25T19:13:13.544Z,101825.66
2018-12-25T19:15:46.558Z,101827.39
2018-12-25T19:18:17.351Z,101827.36
2018-12-25T19:20:48.494Z,101826.54
2018-12-25T19:23:19.544Z,101829.12
2018-12-25T19:25:50.587Z,101827.81
2018-12-25T19:28:21.862Z,101823.98
2018-12-25T19:30:52.847Z,101834.23
2018-12-25T19:33:24.191Z,101831.23
2018-12-25T19:35:55.197Z,101826.55
2018-12-25T19:38:26.309Z,101824.00
2018-12-25T19:40:57.352Z,101829.52
2018-12-25T19:43:28.473Z,101830.79
2018-12-25T19:45:59.501Z,101822.28
2018-12-25T19:48:30.488Z,101820.13
2018-12-25T19:51:01.791Z,101825.66
2018-12-25T19:53:32.836Z,101823.09
2018-12-25T19:56:03.717Z,101824.40
2018-12-25T19:58:35.262Z,101830.36
2018-12-25T20:01:06.074Z,101830.78
2018-12-25T20:03:51.522Z,101822.67
2018-12-25T20:06:50.706Z,101818.84
2018-12-25T20:10:10.756Z,101819.28
2018-12-25T20:13:18.451Z,101825.23
2018-12-25T20:16:36.660Z,101819.69
2018-12-25T20:19:30.029Z,101817.56
2018-12-25T20:22:40.738Z,101809.48
2018-12-25T20:26:03.389Z,101811.62
2018-12-25T20:29:02.436Z,101797.99
2018-12-25T20:31:55.603Z,101807.35
2018-12-25T20:35:10.497Z,101799.69
2018-12-25T20:38:21.565Z,101792.46
2018-12-25T20:41:17.425Z,101800.54
2018-12-25T20:44:23.912Z,101792.02
2018-12-25T20:47:37.949Z,101794.14
2018-12-25T20:50:59.078Z,101776.71
2018-12-25T20:54:03.086Z,101777.12
2018-12-25T20:57:07.479Z,101762.20
2018-12-25T21:00:17.426Z,101764.36
2018-12-25T21:03:28.883Z,101757.11
2018-12-25T21:06:59.054Z,101753.27
2018-12-25T21:10:12.882Z,101759.25
2018-12-25T21:13:37.358Z,101762.63
2018-12-25T21:16:35.550Z,101766.91
2018-12-25T21:19:30.870Z,101764.36
2018-12-25T21:22:37.359Z,101763.95
2018-12-25T21:25:44.180Z,101752.00
2018-12-25T21:28:14.005Z,101752.86
2018-12-25T21:30:45.178Z,101749.03
2018-12-25T21:33:17.453Z,101747.32
2018-12-25T21:35:48.806Z,101746.46
2018-12-25T21:38:19.733Z,101747.30
2018-12-25T21:41:22.172Z,101745.59
2018-12-25T21:43:53.576Z,101739.21
2018-12-25T21:46:26.343Z,101739.20
2018-12-25T21:48:57.583Z,101740.49
2018-12-25T21:54:29.621Z,101737.94
2018-12-25T21:57:20.201Z,101746.46
2018-12-25T22:00:12.629Z,101743.89
2018-12-25T22:02:43.728Z,101737.92
2018-12-25T22:05:14.962Z,101734.95
2018-12-25T22:07:46.213Z,101722.62
2018-12-25T22:10:17.790Z,101738.36
2018-12-25T22:12:48.771Z,101736.66
2018-12-25T22:15:19.559Z,101738.34
2018-12-25T22:17:50.571Z,101738.34
2018-12-25T22:20:27.633Z,101736.22
2018-12-25T22:22:58.666Z,101743.00
2018-12-25T22:25:29.871Z,101743.00
2018-12-25T22:28:00.834Z,101738.33
2018-12-25T22:30:31.939Z,101738.76
2018-12-25T22:33:03.296Z,101734.05
2018-12-25T22:35:34.540Z,101741.72
2018-12-25T22:38:05.694Z,101743.83
2018-12-25T22:40:36.760Z,101745.52
2018-12-25T22:43:07.737Z,101748.05
2018-12-25T22:45:39.055Z,101756.55
2018-12-25T22:48:10.438Z,101762.10
2018-12-25T22:50:41.498Z,101762.92
2018-12-25T22:53:12.434Z,101766.77
2018-12-25T22:55:43.423Z,101759.08
2018-12-25T22:58:14.733Z,101757.42
2018-12-25T23:00:45.993Z,101755.70
2018-12-25T23:03:23.609Z,101768.02
2018-12-25T23:05:54.358Z,101752.67
2018-12-25T23:08:25.096Z,101754.34
2018-12-25T23:10:56.333Z,101747.12
2018-12-25T23:13:27.555Z,101730.94
2018-12-25T23:15:58.302Z,101725.83
2018-12-25T23:18:29.278Z,101726.25
2018-12-25T23:21:00.358Z,101722.88
2018-12-25T23:23:31.087Z,101726.31
2018-12-25T23:26:02.217Z,101720.39
2018-12-25T23:28:33.560Z,101719.09
2018-12-25T23:31:04.874Z,101716.55
2018-12-25T23:33:35.947Z,101718.25
2018-12-25T23:36:06.681Z,101702.52
2018-12-25T23:38:37.732Z,101702.49
2018-12-25T23:41:08.478Z,101705.44
2018-12-25T23:43:39.453Z,101704.59
2018-12-25T23:46:10.445Z,101708.41
2018-12-25T23:48:41.709Z,101707.97
2018-12-25T23:51:12.578Z,101701.15
2018-12-25T23:53:43.617Z,101698.20
2018-12-25T23:56:14.867Z,101696.08
2018-12-25T23:58:45.955Z,101690.55
